Terminal Aerodrome Forecast
Issued by NWS Billings, MT

Home | Current Version | Previous Version | Text Only | Print | Product List | Glossary On
Versions: 1 2 3 4 5 6 7 8 9 10 11 12 13 14 15 16 17 18 19 20 21 22 23 24 25 26 27 28 29 30 31 32 33
000
FTUS45 KBYZ 221720
TAFSHR
TAF
KSHR 221720Z 2218/2318 30015G25KT P6SM VCSH FEW040 BKN100
     FM221900 31020G35KT P6SM VCSH SCT030 OVC070
     FM222200 31020G35KT P6SM VCSH FEW025 BKN050
     FM222300 31013KT P6SM VCSH OVC025=

USA.gov is the U.S. government's official web portal to all federal, state and local government web resources and services.